sensor_id;sensor_type;location;lat;lon;timestamp;P1;durP1;ratioP1;P2;durP2;ratioP2
18726;SDS011;9492;51.888;5.186;2022-08-11T00:00:12;4.00;;;2.97;;
18726;SDS011;9492;51.888;5.186;2022-08-11T00:02:49;3.67;;;3.30;;
18726;SDS011;9492;51.888;5.186;2022-08-11T00:05:16;3.40;;;3.10;;
18726;SDS011;9492;51.888;5.186;2022-08-11T00:07:45;6.20;;;3.20;;
18726;SDS011;9492;51.888;5.186;2022-08-11T00:10:12;4.47;;;3.23;;
18726;SDS011;9492;51.888;5.186;2022-08-11T00:12:38;3.67;;;3.13;;
18726;SDS011;9492;51.888;5.186;2022-08-11T00:15:05;6.80;;;3.50;;
18726;SDS011;9492;51.888;5.186;2022-08-11T00:17:31;3.90;;;3.00;;
18726;SDS011;9492;51.888;5.186;2022-08-11T00:20:09;4.83;;;3.13;;
18726;SDS011;9492;51.888;5.186;2022-08-11T00:22:37;2.60;;;2.40;;
18726;SDS011;9492;51.888;5.186;2022-08-11T00:25:36;3.87;;;2.83;;
18726;SDS011;9492;51.888;5.186;2022-08-11T00:27:56;3.07;;;2.50;;
18726;SDS011;9492;51.888;5.186;2022-08-11T00:30:22;4.20;;;2.80;;
18726;SDS011;9492;51.888;5.186;2022-08-11T00:32:52;2.73;;;2.53;;
18726;SDS011;9492;51.888;5.186;2022-08-11T00:35:21;3.67;;;2.93;;
18726;SDS011;9492;51.888;5.186;2022-08-11T00:37:49;4.53;;;3.00;;
18726;SDS011;9492;51.888;5.186;2022-08-11T00:40:32;2.63;;;2.30;;
18726;SDS011;9492;51.888;5.186;2022-08-11T00:43:14;3.43;;;3.13;;
18726;SDS011;9492;51.888;5.186;2022-08-11T00:45:54;3.10;;;2.80;;
18726;SDS011;9492;51.888;5.186;2022-08-11T00:48:39;3.33;;;2.70;;
18726;SDS011;9492;51.888;5.186;2022-08-11T00:51:23;2.60;;;2.40;;
18726;SDS011;9492;51.888;5.186;2022-08-11T00:54:01;2.73;;;2.53;;
18726;SDS011;9492;51.888;5.186;2022-08-11T01:09:30;3.20;;;2.73;;
18726;SDS011;9492;51.888;5.186;2022-08-11T01:14:37;3.13;;;2.83;;
18726;SDS011;9492;51.888;5.186;2022-08-11T01:17:27;2.80;;;2.60;;
18726;SDS011;9492;51.888;5.186;2022-08-11T01:20:14;3.43;;;2.50;;
18726;SDS011;9492;51.888;5.186;2022-08-11T01:26:08;2.97;;;2.47;;
18726;SDS011;9492;51.888;5.186;2022-08-11T01:34:00;2.70;;;2.40;;
18726;SDS011;9492;51.888;5.186;2022-08-11T01:36:39;2.40;;;2.20;;
18726;SDS011;9492;51.888;5.186;2022-08-11T01:50:27;2.60;;;2.40;;
18726;SDS011;9492;51.888;5.186;2022-08-11T01:52:56;3.30;;;2.93;;
18726;SDS011;9492;51.888;5.186;2022-08-11T01:58:05;3.33;;;2.50;;
18726;SDS011;9492;51.888;5.186;2022-08-11T02:00:34;4.47;;;2.87;;
18726;SDS011;9492;51.888;5.186;2022-08-11T02:05:43;3.90;;;2.30;;
18726;SDS011;9492;51.888;5.186;2022-08-11T02:08:18;2.43;;;2.27;;
18726;SDS011;9492;51.888;5.186;2022-08-11T02:10:47;2.67;;;2.43;;
18726;SDS011;9492;51.888;5.186;2022-08-11T02:13:47;2.33;;;2.13;;
18726;SDS011;9492;51.888;5.186;2022-08-11T02:16:39;4.40;;;2.57;;
18726;SDS011;9492;51.888;5.186;2022-08-11T02:22:39;2.97;;;2.50;;
18726;SDS011;9492;51.888;5.186;2022-08-11T02:25:28;2.97;;;2.50;;
18726;SDS011;9492;51.888;5.186;2022-08-11T02:28:05;2.70;;;2.20;;
18726;SDS011;9492;51.888;5.186;2022-08-11T02:30:46;3.37;;;2.67;;
18726;SDS011;9492;51.888;5.186;2022-08-11T02:33:37;3.90;;;2.80;;
18726;SDS011;9492;51.888;5.186;2022-08-11T02:36:07;2.27;;;2.10;;
18726;SDS011;9492;51.888;5.186;2022-08-11T02:41:13;2.50;;;2.30;;
18726;SDS011;9492;51.888;5.186;2022-08-11T02:46:56;2.30;;;2.10;;
18726;SDS011;9492;51.888;5.186;2022-08-11T02:50:10;2.53;;;2.33;;
18726;SDS011;9492;51.888;5.186;2022-08-11T02:52:24;3.67;;;2.50;;
18726;SDS011;9492;51.888;5.186;2022-08-11T02:55:09;3.70;;;2.60;;
18726;SDS011;9492;51.888;5.186;2022-08-11T02:57:40;2.70;;;2.50;;
18726;SDS011;9492;51.888;5.186;2022-08-11T03:00:12;3.30;;;2.53;;
18726;SDS011;9492;51.888;5.186;2022-08-11T03:02:59;2.77;;;2.53;;
18726;SDS011;9492;51.888;5.186;2022-08-11T03:06:03;2.93;;;2.63;;
18726;SDS011;9492;51.888;5.186;2022-08-11T03:08:30;3.23;;;2.60;;
18726;SDS011;9492;51.888;5.186;2022-08-11T03:11:11;2.47;;;2.17;;
18726;SDS011;9492;51.888;5.186;2022-08-11T03:27:06;2.23;;;2.10;;
18726;SDS011;9492;51.888;5.186;2022-08-11T03:34:49;2.60;;;2.27;;
18726;SDS011;9492;51.888;5.186;2022-08-11T03:37:24;2.83;;;2.20;;
18726;SDS011;9492;51.888;5.186;2022-08-11T03:43:06;2.73;;;2.30;;
18726;SDS011;9492;51.888;5.186;2022-08-11T03:45:57;3.30;;;2.40;;
18726;SDS011;9492;51.888;5.186;2022-08-11T03:51:24;3.30;;;2.70;;
18726;SDS011;9492;51.888;5.186;2022-08-11T04:10:06;3.40;;;3.10;;
18726;SDS011;9492;51.888;5.186;2022-08-11T04:17:47;3.50;;;3.20;;
18726;SDS011;9492;51.888;5.186;2022-08-11T04:25:56;3.70;;;3.40;;
18726;SDS011;9492;51.888;5.186;2022-08-11T04:28:33;3.83;;;3.53;;
18726;SDS011;9492;51.888;5.186;2022-08-11T04:33:57;4.87;;;3.53;;
18726;SDS011;9492;51.888;5.186;2022-08-11T04:41:53;6.43;;;3.87;;
18726;SDS011;9492;51.888;5.186;2022-08-11T04:53:26;3.60;;;3.30;;
18726;SDS011;9492;51.888;5.186;2022-08-11T04:56:17;3.83;;;3.43;;
18726;SDS011;9492;51.888;5.186;2022-08-11T04:59:12;4.10;;;2.97;;
18726;SDS011;9492;51.888;5.186;2022-08-11T05:12:48;4.50;;;3.77;;
18726;SDS011;9492;51.888;5.186;2022-08-11T05:15:21;4.10;;;3.73;;
18726;SDS011;9492;51.888;5.186;2022-08-11T05:18:12;3.83;;;3.53;;
18726;SDS011;9492;51.888;5.186;2022-08-11T05:21:00;4.70;;;3.50;;
18726;SDS011;9492;51.888;5.186;2022-08-11T05:23:46;7.50;;;3.53;;
18726;SDS011;9492;51.888;5.186;2022-08-11T05:26:38;4.53;;;3.57;;
18726;SDS011;9492;51.888;5.186;2022-08-11T05:29:40;5.73;;;3.50;;
18726;SDS011;9492;51.888;5.186;2022-08-11T05:32:26;3.83;;;3.10;;
18726;SDS011;9492;51.888;5.186;2022-08-11T05:35:13;3.60;;;3.30;;
18726;SDS011;9492;51.888;5.186;2022-08-11T05:37:42;4.20;;;3.57;;
18726;SDS011;9492;51.888;5.186;2022-08-11T05:40:27;3.60;;;3.30;;
18726;SDS011;9492;51.888;5.186;2022-08-11T05:43:12;4.87;;;3.13;;
18726;SDS011;9492;51.888;5.186;2022-08-11T05:46:04;4.07;;;3.17;;
18726;SDS011;9492;51.888;5.186;2022-08-11T05:48:50;4.10;;;3.30;;
18726;SDS011;9492;51.888;5.186;2022-08-11T05:51:42;5.32;;;3.00;;
18726;SDS011;9492;51.888;5.186;2022-08-11T05:54:27;5.88;;;3.22;;
18726;SDS011;9492;51.888;5.186;2022-08-11T05:57:19;3.30;;;3.00;;
18726;SDS011;9492;51.888;5.186;2022-08-11T05:59:46;5.97;;;3.25;;
18726;SDS011;9492;51.888;5.186;2022-08-11T06:02:13;4.25;;;3.35;;
18726;SDS011;9492;51.888;5.186;2022-08-11T06:04:40;5.00;;;3.10;;
18726;SDS011;9492;51.888;5.186;2022-08-11T06:07:07;3.80;;;3.35;;
18726;SDS011;9492;51.888;5.186;2022-08-11T06:09:34;3.75;;;2.70;;
18726;SDS011;9492;51.888;5.186;2022-08-11T06:12:20;3.78;;;2.75;;
18726;SDS011;9492;51.888;5.186;2022-08-11T06:14:48;3.15;;;2.70;;
18726;SDS011;9492;51.888;5.186;2022-08-11T06:17:20;4.65;;;2.80;;
18726;SDS011;9492;51.888;5.186;2022-08-11T06:19:46;4.65;;;2.95;;
18726;SDS011;9492;51.888;5.186;2022-08-11T06:22:18;3.10;;;2.65;;
18726;SDS011;9492;51.888;5.186;2022-08-11T06:24:50;5.85;;;2.95;;
18726;SDS011;9492;51.888;5.186;2022-08-11T06:27:20;3.65;;;2.72;;
18726;SDS011;9492;51.888;5.186;2022-08-11T06:29:48;4.35;;;2.83;;
18726;SDS011;9492;51.888;5.186;2022-08-11T06:32:14;2.80;;;2.60;;
18726;SDS011;9492;51.888;5.186;2022-08-11T06:39:51;4.93;;;3.40;;
18726;SDS011;9492;51.888;5.186;2022-08-11T06:42:31;3.67;;;2.60;;
18726;SDS011;9492;51.888;5.186;2022-08-11T06:45:07;3.22;;;2.75;;
18726;SDS011;9492;51.888;5.186;2022-08-11T06:47:41;3.90;;;2.40;;
18726;SDS011;9492;51.888;5.186;2022-08-11T06:50:07;4.50;;;2.70;;
18726;SDS011;9492;51.888;5.186;2022-08-11T06:52:52;4.38;;;2.75;;
18726;SDS011;9492;51.888;5.186;2022-08-11T06:55:23;2.92;;;2.58;;
18726;SDS011;9492;51.888;5.186;2022-08-11T06:58:12;2.72;;;2.53;;
18726;SDS011;9492;51.888;5.186;2022-08-11T07:00:57;5.32;;;3.25;;
18726;SDS011;9492;51.888;5.186;2022-08-11T07:03:25;5.80;;;2.85;;
18726;SDS011;9492;51.888;5.186;2022-08-11T07:06:03;3.15;;;2.95;;
18726;SDS011;9492;51.888;5.186;2022-08-11T07:14:10;3.00;;;2.70;;
18726;SDS011;9492;51.888;5.186;2022-08-11T07:16:55;3.63;;;3.03;;
18726;SDS011;9492;51.888;5.186;2022-08-11T07:19:23;4.10;;;2.60;;
18726;SDS011;9492;51.888;5.186;2022-08-11T07:22:09;2.65;;;2.40;;
18726;SDS011;9492;51.888;5.186;2022-08-11T07:24:56;3.97;;;2.15;;
18726;SDS011;9492;51.888;5.186;2022-08-11T07:27:43;2.47;;;2.28;;
18726;SDS011;9492;51.888;5.186;2022-08-11T07:30:29;2.83;;;2.13;;
18726;SDS011;9492;51.888;5.186;2022-08-11T07:32:56;2.90;;;2.60;;
18726;SDS011;9492;51.888;5.186;2022-08-11T07:35:33;4.25;;;2.60;;
18726;SDS011;9492;51.888;5.186;2022-08-11T07:38:33;4.85;;;2.63;;
18726;SDS011;9492;51.888;5.186;2022-08-11T07:41:14;6.85;;;3.00;;
18726;SDS011;9492;51.888;5.186;2022-08-11T07:43:40;5.13;;;2.00;;
18726;SDS011;9492;51.888;5.186;2022-08-11T07:46:06;2.50;;;2.20;;
18726;SDS011;9492;51.888;5.186;2022-08-11T07:48:52;2.80;;;2.10;;
18726;SDS011;9492;51.888;5.186;2022-08-11T07:51:37;2.70;;;1.90;;
18726;SDS011;9492;51.888;5.186;2022-08-11T07:54:22;2.65;;;2.33;;
18726;SDS011;9492;51.888;5.186;2022-08-11T07:56:49;3.25;;;2.40;;
18726;SDS011;9492;51.888;5.186;2022-08-11T07:59:16;4.97;;;2.35;;
18726;SDS011;9492;51.888;5.186;2022-08-11T08:02:01;3.17;;;1.77;;
18726;SDS011;9492;51.888;5.186;2022-08-11T08:04:46;4.05;;;2.13;;
18726;SDS011;9492;51.888;5.186;2022-08-11T08:07:32;3.75;;;2.17;;
18726;SDS011;9492;51.888;5.186;2022-08-11T08:10:17;2.60;;;2.30;;
18726;SDS011;9492;51.888;5.186;2022-08-11T08:13:03;2.75;;;2.08;;
18726;SDS011;9492;51.888;5.186;2022-08-11T08:15:48;2.80;;;2.03;;
18726;SDS011;9492;51.888;5.186;2022-08-11T08:18:33;3.83;;;2.00;;
18726;SDS011;9492;51.888;5.186;2022-08-11T08:21:02;3.50;;;2.20;;
18726;SDS011;9492;51.888;5.186;2022-08-11T08:23:36;5.32;;;2.20;;
18726;SDS011;9492;51.888;5.186;2022-08-11T08:26:06;3.05;;;2.17;;
18726;SDS011;9492;51.888;5.186;2022-08-11T08:28:54;4.53;;;2.80;;
18726;SDS011;9492;51.888;5.186;2022-08-11T08:31:40;2.55;;;2.22;;
18726;SDS011;9492;51.888;5.186;2022-08-11T08:34:06;4.93;;;2.30;;
18726;SDS011;9492;51.888;5.186;2022-08-11T08:36:32;2.20;;;2.00;;
18726;SDS011;9492;51.888;5.186;2022-08-11T08:38:58;5.32;;;2.00;;
18726;SDS011;9492;51.888;5.186;2022-08-11T08:41:28;3.30;;;2.40;;
18726;SDS011;9492;51.888;5.186;2022-08-11T08:43:56;3.35;;;2.58;;
18726;SDS011;9492;51.888;5.186;2022-08-11T08:46:28;3.90;;;2.05;;
18726;SDS011;9492;51.888;5.186;2022-08-11T08:48:59;3.47;;;2.60;;
18726;SDS011;9492;51.888;5.186;2022-08-11T08:51:26;3.63;;;2.60;;
18726;SDS011;9492;51.888;5.186;2022-08-11T08:54:06;3.05;;;2.10;;
18726;SDS011;9492;51.888;5.186;2022-08-11T08:56:32;4.05;;;2.42;;
18726;SDS011;9492;51.888;5.186;2022-08-11T08:59:00;2.95;;;2.00;;
18726;SDS011;9492;51.888;5.186;2022-08-11T09:01:31;2.17;;;1.90;;
18726;SDS011;9492;51.888;5.186;2022-08-11T09:03:58;4.18;;;2.30;;
18726;SDS011;9492;51.888;5.186;2022-08-11T09:06:24;2.33;;;2.08;;
18726;SDS011;9492;51.888;5.186;2022-08-11T09:08:50;3.80;;;2.58;;
18726;SDS011;9492;51.888;5.186;2022-08-11T09:11:18;2.20;;;2.00;;
18726;SDS011;9492;51.888;5.186;2022-08-11T09:14:06;3.40;;;2.63;;
18726;SDS011;9492;51.888;5.186;2022-08-11T09:16:32;3.08;;;2.20;;
18726;SDS011;9492;51.888;5.186;2022-08-11T09:18:59;3.83;;;2.10;;
18726;SDS011;9492;51.888;5.186;2022-08-11T09:21:25;7.20;;;3.05;;
18726;SDS011;9492;51.888;5.186;2022-08-11T09:23:52;4.28;;;2.28;;
18726;SDS011;9492;51.888;5.186;2022-08-11T09:26:36;4.32;;;2.45;;
18726;SDS011;9492;51.888;5.186;2022-08-11T09:29:22;3.83;;;2.20;;
18726;SDS011;9492;51.888;5.186;2022-08-11T09:31:48;3.75;;;2.58;;
18726;SDS011;9492;51.888;5.186;2022-08-11T09:34:14;2.83;;;2.13;;
18726;SDS011;9492;51.888;5.186;2022-08-11T09:36:42;4.95;;;2.67;;
18726;SDS011;9492;51.888;5.186;2022-08-11T09:39:27;4.28;;;2.42;;
18726;SDS011;9492;51.888;5.186;2022-08-11T09:42:12;3.40;;;2.30;;
18726;SDS011;9492;51.888;5.186;2022-08-11T09:44:39;3.72;;;2.88;;
18726;SDS011;9492;51.888;5.186;2022-08-11T09:49:45;2.53;;;2.33;;
18726;SDS011;9492;51.888;5.186;2022-08-11T09:52:13;6.15;;;2.50;;
18726;SDS011;9492;51.888;5.186;2022-08-11T09:54:42;3.00;;;2.40;;
18726;SDS011;9492;51.888;5.186;2022-08-11T09:57:08;4.88;;;1.95;;
18726;SDS011;9492;51.888;5.186;2022-08-11T09:59:53;3.17;;;2.15;;
18726;SDS011;9492;51.888;5.186;2022-08-11T10:02:26;2.72;;;2.10;;
18726;SDS011;9492;51.888;5.186;2022-08-11T10:04:56;4.40;;;2.30;;
18726;SDS011;9492;51.888;5.186;2022-08-11T10:07:44;4.45;;;2.22;;
18726;SDS011;9492;51.888;5.186;2022-08-11T10:10:14;2.88;;;2.40;;
18726;SDS011;9492;51.888;5.186;2022-08-11T10:12:41;3.03;;;2.03;;
18726;SDS011;9492;51.888;5.186;2022-08-11T10:15:11;2.33;;;2.03;;
18726;SDS011;9492;51.888;5.186;2022-08-11T10:18:06;4.10;;;2.33;;
18726;SDS011;9492;51.888;5.186;2022-08-11T10:20:52;7.78;;;2.22;;
18726;SDS011;9492;51.888;5.186;2022-08-11T10:23:20;2.25;;;2.03;;
18726;SDS011;9492;51.888;5.186;2022-08-11T10:26:05;2.40;;;2.20;;
18726;SDS011;9492;51.888;5.186;2022-08-11T10:28:51;2.15;;;2.05;;
18726;SDS011;9492;51.888;5.186;2022-08-11T10:31:18;4.70;;;2.25;;
18726;SDS011;9492;51.888;5.186;2022-08-11T10:34:03;4.32;;;2.20;;
18726;SDS011;9492;51.888;5.186;2022-08-11T10:36:39;4.10;;;2.00;;
18726;SDS011;9492;51.888;5.186;2022-08-11T10:39:09;1.98;;;1.85;;
18726;SDS011;9492;51.888;5.186;2022-08-11T10:41:41;2.65;;;2.15;;
18726;SDS011;9492;51.888;5.186;2022-08-11T10:44:26;2.50;;;2.15;;
18726;SDS011;9492;51.888;5.186;2022-08-11T10:46:55;2.10;;;1.90;;
18726;SDS011;9492;51.888;5.186;2022-08-11T10:49:54;2.40;;;2.20;;
18726;SDS011;9492;51.888;5.186;2022-08-11T10:52:39;3.72;;;2.40;;
18726;SDS011;9492;51.888;5.186;2022-08-11T10:55:24;2.28;;;2.08;;
18726;SDS011;9492;51.888;5.186;2022-08-11T10:58:10;1.98;;;1.88;;
18726;SDS011;9492;51.888;5.186;2022-08-11T11:00:55;4.38;;;2.03;;
18726;SDS011;9492;51.888;5.186;2022-08-11T11:03:27;2.28;;;2.08;;
18726;SDS011;9492;51.888;5.186;2022-08-11T11:05:55;3.08;;;2.10;;
18726;SDS011;9492;51.888;5.186;2022-08-11T11:08:24;3.50;;;2.25;;
18726;SDS011;9492;51.888;5.186;2022-08-11T11:11:11;2.22;;;2.00;;
18726;SDS011;9492;51.888;5.186;2022-08-11T11:13:40;3.70;;;1.90;;
18726;SDS011;9492;51.888;5.186;2022-08-11T11:16:27;2.05;;;1.80;;
18726;SDS011;9492;51.888;5.186;2022-08-11T11:19:13;3.72;;;2.30;;
18726;SDS011;9492;51.888;5.186;2022-08-11T11:21:43;3.05;;;2.08;;
18726;SDS011;9492;51.888;5.186;2022-08-11T11:26:54;3.88;;;2.42;;
18726;SDS011;9492;51.888;5.186;2022-08-11T11:32:08;2.95;;;2.30;;
18726;SDS011;9492;51.888;5.186;2022-08-11T11:37:05;4.07;;;2.53;;
18726;SDS011;9492;51.888;5.186;2022-08-11T11:39:31;4.03;;;2.00;;
18726;SDS011;9492;51.888;5.186;2022-08-11T11:42:01;2.78;;;2.33;;
18726;SDS011;9492;51.888;5.186;2022-08-11T11:44:28;2.50;;;2.30;;
18726;SDS011;9492;51.888;5.186;2022-08-11T11:46:55;3.63;;;2.42;;
18726;SDS011;9492;51.888;5.186;2022-08-11T11:49:24;3.22;;;2.30;;
18726;SDS011;9492;51.888;5.186;2022-08-11T11:51:51;3.05;;;2.50;;
18726;SDS011;9492;51.888;5.186;2022-08-11T11:54:22;4.20;;;2.35;;
18726;SDS011;9492;51.888;5.186;2022-08-11T11:56:49;9.45;;;2.30;;
18726;SDS011;9492;51.888;5.186;2022-08-11T11:59:17;2.90;;;2.17;;
18726;SDS011;9492;51.888;5.186;2022-08-11T12:02:02;2.40;;;2.20;;
18726;SDS011;9492;51.888;5.186;2022-08-11T12:04:29;2.50;;;2.30;;
18726;SDS011;9492;51.888;5.186;2022-08-11T12:06:55;4.25;;;2.40;;
18726;SDS011;9492;51.888;5.186;2022-08-11T12:09:41;5.45;;;2.35;;
18726;SDS011;9492;51.888;5.186;2022-08-11T12:12:07;4.20;;;2.50;;
18726;SDS011;9492;51.888;5.186;2022-08-11T12:14:52;3.15;;;2.08;;
18726;SDS011;9492;51.888;5.186;2022-08-11T12:17:19;2.22;;;2.13;;
18726;SDS011;9492;51.888;5.186;2022-08-11T12:19:45;5.97;;;2.35;;
18726;SDS011;9492;51.888;5.186;2022-08-11T12:22:12;3.67;;;2.55;;
18726;SDS011;9492;51.888;5.186;2022-08-11T12:24:57;2.20;;;2.10;;
18726;SDS011;9492;51.888;5.186;2022-08-11T12:27:41;3.45;;;2.22;;
18726;SDS011;9492;51.888;5.186;2022-08-11T12:30:08;2.90;;;2.03;;
18726;SDS011;9492;51.888;5.186;2022-08-11T12:32:35;3.38;;;2.17;;
18726;SDS011;9492;51.888;5.186;2022-08-11T12:35:02;2.78;;;2.17;;
18726;SDS011;9492;51.888;5.186;2022-08-11T12:37:36;4.28;;;2.00;;
18726;SDS011;9492;51.888;5.186;2022-08-11T12:40:04;2.58;;;2.38;;
18726;SDS011;9492;51.888;5.186;2022-08-11T12:42:50;2.45;;;2.10;;
18726;SDS011;9492;51.888;5.186;2022-08-11T12:45:36;2.15;;;2.05;;
18726;SDS011;9492;51.888;5.186;2022-08-11T12:50:53;6.47;;;2.38;;
18726;SDS011;9492;51.888;5.186;2022-08-11T12:53:41;2.30;;;2.10;;
18726;SDS011;9492;51.888;5.186;2022-08-11T12:56:08;2.50;;;2.25;;
18726;SDS011;9492;51.888;5.186;2022-08-11T12:58:53;1.80;;;1.70;;
18726;SDS011;9492;51.888;5.186;2022-08-11T13:01:37;2.67;;;2.05;;
18726;SDS011;9492;51.888;5.186;2022-08-11T13:04:22;3.60;;;2.15;;
18726;SDS011;9492;51.888;5.186;2022-08-11T13:07:07;5.45;;;2.10;;
18726;SDS011;9492;51.888;5.186;2022-08-11T13:09:34;6.65;;;2.05;;
18726;SDS011;9492;51.888;5.186;2022-08-11T13:12:01;3.95;;;2.08;;
18726;SDS011;9492;51.888;5.186;2022-08-11T13:14:53;6.38;;;2.50;;
18726;SDS011;9492;51.888;5.186;2022-08-11T13:17:23;2.05;;;1.95;;
18726;SDS011;9492;51.888;5.186;2022-08-11T13:19:50;2.40;;;2.00;;
18726;SDS011;9492;51.888;5.186;2022-08-11T13:22:17;3.88;;;1.92;;
18726;SDS011;9492;51.888;5.186;2022-08-11T13:24:44;2.35;;;2.15;;
18726;SDS011;9492;51.888;5.186;2022-08-11T13:27:12;1.95;;;1.83;;
18726;SDS011;9492;51.888;5.186;2022-08-11T13:29:39;2.28;;;2.08;;
18726;SDS011;9492;51.888;5.186;2022-08-11T13:32:06;3.08;;;2.45;;
18726;SDS011;9492;51.888;5.186;2022-08-11T13:34:33;2.58;;;2.05;;
18726;SDS011;9492;51.888;5.186;2022-08-11T13:37:05;2.60;;;2.35;;
18726;SDS011;9492;51.888;5.186;2022-08-11T13:39:32;2.97;;;2.45;;
18726;SDS011;9492;51.888;5.186;2022-08-11T13:42:00;2.88;;;2.03;;
18726;SDS011;9492;51.888;5.186;2022-08-11T13:44:27;2.83;;;2.10;;
18726;SDS011;9492;51.888;5.186;2022-08-11T13:46:58;4.93;;;2.20;;
18726;SDS011;9492;51.888;5.186;2022-08-11T13:49:25;4.15;;;1.98;;
18726;SDS011;9492;51.888;5.186;2022-08-11T13:51:51;2.20;;;2.00;;
18726;SDS011;9492;51.888;5.186;2022-08-11T13:54:18;2.20;;;2.00;;
18726;SDS011;9492;51.888;5.186;2022-08-11T13:56:46;2.55;;;2.30;;
18726;SDS011;9492;51.888;5.186;2022-08-11T13:59:13;5.60;;;2.22;;
18726;SDS011;9492;51.888;5.186;2022-08-11T14:02:00;2.30;;;2.10;;
18726;SDS011;9492;51.888;5.186;2022-08-11T14:04:33;6.50;;;2.33;;
18726;SDS011;9492;51.888;5.186;2022-08-11T14:07:04;4.82;;;2.10;;
18726;SDS011;9492;51.888;5.186;2022-08-11T14:09:31;2.30;;;1.90;;
18726;SDS011;9492;51.888;5.186;2022-08-11T14:12:00;2.30;;;1.77;;
18726;SDS011;9492;51.888;5.186;2022-08-11T14:14:48;4.60;;;2.00;;
18726;SDS011;9492;51.888;5.186;2022-08-11T14:17:18;1.80;;;1.70;;
18726;SDS011;9492;51.888;5.186;2022-08-11T14:19:46;6.78;;;2.33;;
18726;SDS011;9492;51.888;5.186;2022-08-11T14:22:15;4.05;;;2.20;;
18726;SDS011;9492;51.888;5.186;2022-08-11T14:24:43;3.97;;;2.15;;
18726;SDS011;9492;51.888;5.186;2022-08-11T14:27:13;2.33;;;2.03;;
18726;SDS011;9492;51.888;5.186;2022-08-11T14:29:40;1.77;;;1.67;;
18726;SDS011;9492;51.888;5.186;2022-08-11T14:32:07;3.83;;;2.03;;
18726;SDS011;9492;51.888;5.186;2022-08-11T14:34:34;2.38;;;1.75;;
18726;SDS011;9492;51.888;5.186;2022-08-11T14:37:01;2.00;;;1.80;;
18726;SDS011;9492;51.888;5.186;2022-08-11T14:39:29;1.88;;;1.73;;
18726;SDS011;9492;51.888;5.186;2022-08-11T14:42:01;4.03;;;2.45;;
18726;SDS011;9492;51.888;5.186;2022-08-11T14:44:47;2.40;;;1.80;;
18726;SDS011;9492;51.888;5.186;2022-08-11T14:47:33;2.33;;;1.67;;
18726;SDS011;9492;51.888;5.186;2022-08-11T14:50:00;2.33;;;2.13;;
18726;SDS011;9492;51.888;5.186;2022-08-11T14:52:27;2.85;;;2.03;;
18726;SDS011;9492;51.888;5.186;2022-08-11T14:54:55;2.50;;;1.88;;
18726;SDS011;9492;51.888;5.186;2022-08-11T14:57:40;2.85;;;2.15;;
18726;SDS011;9492;51.888;5.186;2022-08-11T15:00:07;2.00;;;1.80;;
18726;SDS011;9492;51.888;5.186;2022-08-11T15:02:37;4.47;;;2.20;;
18726;SDS011;9492;51.888;5.186;2022-08-11T15:05:23;3.55;;;2.55;;
18726;SDS011;9492;51.888;5.186;2022-08-11T15:07:49;3.83;;;1.75;;
18726;SDS011;9492;51.888;5.186;2022-08-11T15:10:16;2.50;;;1.90;;
18726;SDS011;9492;51.888;5.186;2022-08-11T15:12:43;3.25;;;1.90;;
18726;SDS011;9492;51.888;5.186;2022-08-11T15:15:10;1.95;;;1.75;;
18726;SDS011;9492;51.888;5.186;2022-08-11T15:17:56;2.92;;;2.10;;
18726;SDS011;9492;51.888;5.186;2022-08-11T15:20:24;2.72;;;2.00;;
18726;SDS011;9492;51.888;5.186;2022-08-11T15:23:09;1.73;;;1.63;;
18726;SDS011;9492;51.888;5.186;2022-08-11T15:25:55;1.95;;;1.80;;
18726;SDS011;9492;51.888;5.186;2022-08-11T15:28:21;4.38;;;2.13;;
18726;SDS011;9492;51.888;5.186;2022-08-11T15:31:06;3.75;;;2.13;;
18726;SDS011;9492;51.888;5.186;2022-08-11T15:33:52;3.95;;;2.30;;
18726;SDS011;9492;51.888;5.186;2022-08-11T15:36:37;3.03;;;1.90;;
18726;SDS011;9492;51.888;5.186;2022-08-11T15:42:27;2.90;;;1.85;;
18726;SDS011;9492;51.888;5.186;2022-08-11T15:45:12;2.20;;;1.85;;
18726;SDS011;9492;51.888;5.186;2022-08-11T15:47:59;2.28;;;2.08;;
18726;SDS011;9492;51.888;5.186;2022-08-11T15:50:27;1.83;;;1.73;;
18726;SDS011;9492;51.888;5.186;2022-08-11T15:52:57;2.10;;;1.90;;
18726;SDS011;9492;51.888;5.186;2022-08-11T15:55:24;4.13;;;1.75;;
18726;SDS011;9492;51.888;5.186;2022-08-11T15:57:52;4.07;;;1.70;;
18726;SDS011;9492;51.888;5.186;2022-08-11T16:00:38;2.10;;;1.90;;
18726;SDS011;9492;51.888;5.186;2022-08-11T16:03:24;4.80;;;1.90;;
18726;SDS011;9492;51.888;5.186;2022-08-11T16:06:10;2.50;;;1.63;;
18726;SDS011;9492;51.888;5.186;2022-08-11T16:08:38;1.98;;;1.88;;
18726;SDS011;9492;51.888;5.186;2022-08-11T16:11:04;2.90;;;1.63;;
18726;SDS011;9492;51.888;5.186;2022-08-11T16:13:31;4.90;;;1.80;;
18726;SDS011;9492;51.888;5.186;2022-08-11T16:15:57;1.90;;;1.80;;
18726;SDS011;9492;51.888;5.186;2022-08-11T16:18:53;3.30;;;2.00;;
18726;SDS011;9492;51.888;5.186;2022-08-11T16:21:29;3.80;;;1.88;;
18726;SDS011;9492;51.888;5.186;2022-08-11T16:23:57;6.13;;;2.40;;
18726;SDS011;9492;51.888;5.186;2022-08-11T16:26:24;3.78;;;1.80;;
18726;SDS011;9492;51.888;5.186;2022-08-11T16:28:52;2.25;;;1.98;;
18726;SDS011;9492;51.888;5.186;2022-08-11T16:31:20;3.25;;;1.90;;
18726;SDS011;9492;51.888;5.186;2022-08-11T16:33:47;1.90;;;1.80;;
18726;SDS011;9492;51.888;5.186;2022-08-11T16:36:16;2.55;;;2.13;;
18726;SDS011;9492;51.888;5.186;2022-08-11T16:39:02;2.58;;;2.15;;
18726;SDS011;9492;51.888;5.186;2022-08-11T16:41:30;2.30;;;1.98;;
18726;SDS011;9492;51.888;5.186;2022-08-11T16:44:16;2.10;;;1.63;;
18726;SDS011;9492;51.888;5.186;2022-08-11T16:47:01;3.67;;;1.75;;
18726;SDS011;9492;51.888;5.186;2022-08-11T16:52:00;2.30;;;2.10;;
18726;SDS011;9492;51.888;5.186;2022-08-11T16:54:29;4.10;;;1.90;;
18726;SDS011;9492;51.888;5.186;2022-08-11T16:56:58;3.20;;;1.75;;
18726;SDS011;9492;51.888;5.186;2022-08-11T16:59:45;2.30;;;1.70;;
18726;SDS011;9492;51.888;5.186;2022-08-11T17:02:15;1.73;;;1.52;;
18726;SDS011;9492;51.888;5.186;2022-08-11T17:05:12;2.00;;;1.83;;
18726;SDS011;9492;51.888;5.186;2022-08-11T17:07:59;2.95;;;1.67;;
18726;SDS011;9492;51.888;5.186;2022-08-11T17:10:49;1.40;;;1.30;;
18726;SDS011;9492;51.888;5.186;2022-08-11T17:13:39;1.77;;;1.67;;
18726;SDS011;9492;51.888;5.186;2022-08-11T17:16:06;3.55;;;1.92;;
18726;SDS011;9492;51.888;5.186;2022-08-11T17:18:37;4.25;;;1.80;;
18726;SDS011;9492;51.888;5.186;2022-08-11T17:21:07;2.15;;;1.95;;
18726;SDS011;9492;51.888;5.186;2022-08-11T17:23:40;2.80;;;1.92;;
18726;SDS011;9492;51.888;5.186;2022-08-11T17:26:11;3.03;;;1.90;;
18726;SDS011;9492;51.888;5.186;2022-08-11T17:28:37;3.38;;;1.92;;
18726;SDS011;9492;51.888;5.186;2022-08-11T17:31:06;2.03;;;1.85;;
18726;SDS011;9492;51.888;5.186;2022-08-11T17:33:52;5.00;;;2.33;;
18726;SDS011;9492;51.888;5.186;2022-08-11T17:36:39;2.55;;;1.85;;
18726;SDS011;9492;51.888;5.186;2022-08-11T17:39:08;2.53;;;1.75;;
18726;SDS011;9492;51.888;5.186;2022-08-11T17:41:35;3.70;;;1.73;;
18726;SDS011;9492;51.888;5.186;2022-08-11T17:44:20;2.17;;;1.70;;
18726;SDS011;9492;51.888;5.186;2022-08-11T17:47:05;2.33;;;1.90;;
18726;SDS011;9492;51.888;5.186;2022-08-11T17:49:50;1.70;;;1.58;;
18726;SDS011;9492;51.888;5.186;2022-08-11T17:52:17;2.90;;;2.28;;
18726;SDS011;9492;51.888;5.186;2022-08-11T17:55:02;3.08;;;2.10;;
18726;SDS011;9492;51.888;5.186;2022-08-11T17:57:47;1.77;;;1.67;;
18726;SDS011;9492;51.888;5.186;2022-08-11T18:00:33;3.83;;;1.70;;
18726;SDS011;9492;51.888;5.186;2022-08-11T18:02:59;2.22;;;1.55;;
18726;SDS011;9492;51.888;5.186;2022-08-11T18:11:39;3.15;;;2.10;;
18726;SDS011;9492;51.888;5.186;2022-08-11T18:14:24;2.35;;;2.13;;
18726;SDS011;9492;51.888;5.186;2022-08-11T18:17:16;3.65;;;2.00;;
18726;SDS011;9492;51.888;5.186;2022-08-11T18:20:01;1.92;;;1.80;;
18726;SDS011;9492;51.888;5.186;2022-08-11T18:22:46;2.88;;;1.90;;
18726;SDS011;9492;51.888;5.186;2022-08-11T18:25:32;1.80;;;1.70;;
18726;SDS011;9492;51.888;5.186;2022-08-11T18:28:20;2.95;;;1.58;;
18726;SDS011;9492;51.888;5.186;2022-08-11T18:31:07;2.90;;;1.60;;
18726;SDS011;9492;51.888;5.186;2022-08-11T18:33:53;1.60;;;1.45;;
18726;SDS011;9492;51.888;5.186;2022-08-11T18:36:48;6.32;;;1.63;;